Latest Weather Observations for Julia Creek

IDQ60801

Issued at 12:02 pm EST Tuesday 31 May 2016 (issued every 30 minutes, with the page automatically refreshed every 10 minutes)

About weather observations | Map of weather stations | Latest weather observations for QLD | Other Formats
Station Details ID: 029058 Name: JULIA CREEK AIRPORT Lat: -20.67 Lon: 141.72 Height: 122.5 m
Data from the previous 72 hours. | See also: Recent months at Julia Creek
Date/Time
EST
Temp
°C
App
Temp
°C
Dew
Point
Rel
Hum
%
Delta-T
°C
Wind Press
QNH
hPa
Press
MSL
hPa
Rain
since 9 am
mm
Dir
 
Spd
km/h
Gust
km/h
Spd
kts
Gust
kts
31/12:00pm 29.2 29.8 13.0 37 9.6 E 2 7 1 4 1018.2 1017.8 0.0
31/11:30am 28.3 28.9 13.0 39 9.0 NNE 2 13 1 7 1018.6 1018.2 0.0
31/11:00am 27.5 27.0 11.9 38 9.0 SE 6 13 3 7 1019.2 1018.8 0.0
31/10:30am 26.0 25.0 10.2 37 8.8 SSE 6 9 3 5 1019.6 1019.2 0.0
31/10:00am 25.1 23.6 9.0 36 8.8 SE 7 13 4 7 1019.9 1019.5 0.0
31/09:30am 24.1 21.2 8.1 36 8.5 SE 13 17 7 9 1020.0 1019.6 0.0
31/09:00am 21.6 17.8 5.9 36 7.9 SE 15 17 8 9 1019.6 1019.2 0.0
31/08:30am 21.1 17.5 5.1 35 7.9 SSE 13 15 7 8 1019.5 1019.1 0.0
31/08:00am 19.3 16.3 3.9 36 7.3 SSE 9 13 5 7 1019.0 1018.6 0.0
31/07:30am 18.0 14.5 3.5 38 6.8 SSE 11 15 6 8 1018.8 1018.4 0.0
31/07:00am 17.4 13.9 3.7 40 6.4 S 11 13 6 7 1018.4 1018.0 0.0
31/06:30am 17.7 14.6 3.6 39 6.6 SE 9 11 5 6 1017.7 1017.3 0.0
31/06:00am 18.3 15.1 3.0 36 7.1 SE 9 13 5 7 1017.3 1016.8 0.0
31/05:30am 18.8 14.8 3.0 35 7.4 SE 13 15 7 8 1016.9 1016.4 0.0
31/05:00am 19.1 15.2 3.3 35 7.4 SE 13 15 7 8 1017.0 1016.5 0.0
31/04:30am 19.4 15.4 2.7 33 7.8 ESE 13 17 7 9 1017.0 1016.5 0.0
31/04:00am 20.3 15.6 3.1 32 8.1 SE 17 22 9 12 1016.7 1016.2 0.0
31/03:30am 18.8 15.2 3.0 35 7.4 SSE 11 13 6 7 1016.7 1016.2 0.0
31/03:00am 19.5 15.9 3.2 34 7.7 SE 11 15 6 8 1017.0 1016.5 0.0
31/02:30am 19.0 15.5 3.6 36 7.3 SE 11 13 6 7 1017.1 1016.6 0.0
31/02:00am 20.3 16.4 3.5 33 8.0 SE 13 17 7 9 1017.3 1016.8 0.0
31/01:30am 20.8 16.9 3.5 32 8.3 SE 13 19 7 10 1017.4 1016.9 0.0
31/01:00am 20.6 16.5 4.2 34 7.9 SE 15 19 8 10 1017.2 1016.7 0.0
31/12:30am 19.6 16.4 4.9 38 7.2 SE 11 13 6 7 1017.2 1016.7 0.0
31/12:00am 20.2 16.5 4.7 36 7.6 ESE 13 13 7 7 1017.1 1016.6 0.0
 
Date/Time
EST
Temp
°C
App
Temp
°C
Dew
Point
Rel
Hum
%
Delta-T
°C
Wind Press
QNH
hPa
Press
MSL
hPa
Rain
since 9 am
mm
Dir
 
Spd
km/h
Gust
km/h
Spd
kts
Gust
kts
30/11:30pm 21.6 17.5 4.2 32 8.5 SE 15 17 8 9 1017.1 1016.6 0.0
30/11:00pm 22.5 18.1 4.5 31 8.9 SE 17 20 9 11 1017.2 1016.7 0.0
30/10:30pm 22.6 18.4 5.5 33 8.6 SE 17 20 9 11 1017.0 1016.5 0.0
30/10:00pm 22.9 19.1 5.8 33 8.7 SE 15 19 8 10 1017.1 1016.6 0.0
30/09:30pm 23.4 19.8 6.7 34 8.7 SE 15 19 8 10 1017.1 1016.6 0.0
30/09:00pm 23.7 20.4 8.2 37 8.3 SSE 15 19 8 10 1017.0 1016.5 0.0
30/08:30pm 23.1 20.6 8.4 39 7.8 SSE 11 15 6 8 1016.8 1016.3 0.0
30/08:00pm 23.8 21.3 8.2 37 8.3 SSE 11 13 6 7 1016.5 1016.0 0.0
30/07:30pm 24.7 22.3 8.6 36 8.7 SSE 11 13 6 7 1016.0 1015.5 0.0
30/07:00pm 25.1 22.6 8.1 34 9.1 S 11 13 6 7 1015.7 1015.2 0.0
30/06:30pm 26.9 24.5 8.8 32 9.9 S 11 13 6 7 1015.7 1015.2 0.0
30/06:00pm 28.7 26.5 9.4 30 10.8 S 11 13 6 7 1015.4 1014.9 0.0
30/05:30pm 30.9 29.2 9.7 27 12.0 SSE 9 13 5 7 1015.0 1014.5 0.0
30/05:00pm 31.6 30.8 9.8 26 12.4 S 4 11 2 6 1014.7 1014.2 0.0
30/04:30pm 32.0 31.3 10.1 26 12.6 S 4 9 2 5 1014.6 1014.1 0.0
30/04:00pm 32.3 31.3 10.4 26 12.6 SE 6 13 3 7 1014.7 1014.2 0.0
30/03:30pm 32.4 31.8 10.4 26 12.7 SE 4 13 2 7 1014.8 1014.3 0.0
30/03:00pm 31.7 30.4 9.8 26 12.5 SSE 7 17 4 9 1015.1 1014.6 0.0
30/02:30pm 32.6 31.1 10.6 26 12.8 SE 9 24 5 13 1015.3 1014.8 0.0
30/02:00pm 31.9 30.6 10.0 26 12.5 ESE 7 13 4 7 1015.6 1015.1 0.0
30/01:30pm 30.7 28.9 9.6 27 11.9 ESE 9 15 5 8 1016.1 1015.6 0.0
30/01:00pm 30.3 28.5 8.1 25 12.2 E 7 19 4 10 1016.8 1016.3 0.0
30/12:30pm 30.2 27.4 6.8 23 12.6 SE 11 19 6 10 1017.6 1017.2 0.0
30/12:00pm 29.6 26.4 5.0 21 12.8 ESE 11 17 6 9 1018.3 1017.9 0.0
30/11:30am 28.8 24.6 3.6 20 12.8 ESE 15 22 8 12 1018.7 1018.3 0.0
30/11:00am 28.3 23.5 2.5 19 12.8 ESE 17 24 9 13 1019.0 1018.6 0.0
30/10:30am 27.3 21.7 0.9 18 12.6 ESE 20 28 11 15 1019.3 1018.9 0.0
30/10:00am 25.2 19.6 0.0 19 11.6 ESE 19 24 10 13 1019.6 1019.2 0.0
30/09:30am 23.0 17.4 1.4 24 10.1 ESE 20 28 11 15 1019.6 1019.2 0.0
30/09:00am 21.1 15.7 2.4 29 8.8 SE 20 26 11 14 1019.6 1019.2 0.0
30/08:30am 19.0 13.6 2.4 33 7.7 ESE 20 26 11 14 1019.0 1018.6 0.0
30/08:00am 16.7 11.8 2.3 38 6.5 SE 17 20 9 11 1018.6 1018.2 0.0
30/07:30am 14.7 10.7 2.6 44 5.4 SSE 13 15 7 8 1018.3 1017.9 0.0
30/07:00am 14.4 10.7 2.6 45 5.3 SE 11 15 6 8 1018.0 1017.6 0.0
30/06:30am 14.8 10.7 2.4 43 5.5 SE 13 15 7 8 1017.8 1017.4 0.0
30/06:00am 14.9 10.8 2.4 43 5.6 SSE 13 15 7 8 1017.6 1017.2 0.0
30/05:30am 15.6 11.1 2.4 41 5.9 SE 15 19 8 10 1017.4 1016.9 0.0
30/05:00am 15.7 11.3 2.5 41 5.9 SE 15 17 8 9 1017.2 1016.7 0.0
30/04:30am 15.4 11.4 2.9 43 5.7 SE 13 15 7 8 1017.1 1016.6 0.0
30/04:00am 15.2 11.7 3.4 45 5.4 SSE 11 15 6 8 1017.1 1016.6 0.0
30/03:30am 15.3 11.9 4.1 47 5.2 SSE 11 13 6 7 1017.1 1016.6 0.0
30/03:00am 15.3 12.3 4.1 47 5.2 SE 9 9 5 5 1017.2 1016.7 0.0
30/02:30am 16.4 13.1 4.4 45 5.7 SE 11 15 6 8 1017.1 1016.6 0.0
30/02:00am 16.4 13.1 4.4 45 5.7 SE 11 13 6 7 1016.9 1016.4 0.0
30/01:30am 16.0 12.8 5.0 48 5.2 SSE 11 13 6 7 1017.1 1016.6 0.0
30/01:00am 16.4 13.5 4.8 46 5.5 SSE 9 11 5 6 1017.2 1016.7 0.0
30/12:30am 15.8 12.9 4.8 48 5.2 SSE 9 11 5 6 1017.3 1016.8 0.0
30/12:00am 16.4 13.5 4.8 46 5.5 SE 9 11 5 6 1017.6 1017.2 0.0
 
Date/Time
EST
Temp
°C
App
Temp
°C
Dew
Point
Rel
Hum
%
Delta-T
°C
Wind Press
QNH
hPa
Press
MSL
hPa
Rain
since 9 am
mm
Dir
 
Spd
km/h
Gust
km/h
Spd
kts
Gust
kts
29/11:30pm 17.8 14.9 4.7 42 6.3 SE 9 11 5 6 1017.6 1017.2 0.0
29/11:00pm 19.0 15.3 4.7 39 6.9 SE 13 13 7 7 1017.7 1017.3 0.0
29/10:30pm 19.3 16.0 4.6 38 7.1 SE 11 13 6 7 1017.6 1017.2 0.0
29/10:00pm 18.9 15.3 5.0 40 6.8 SE 13 13 7 7 1017.8 1017.4 0.0
29/09:30pm 18.8 15.9 4.9 40 6.7 SE 9 11 5 6 1017.9 1017.5 0.0
29/09:00pm 19.8 16.5 4.7 37 7.3 SSE 11 13 6 7 1017.8 1017.4 0.0
29/08:30pm 20.7 17.4 4.7 35 7.8 SE 11 13 6 7 1017.5 1017.1 0.0
29/08:00pm 21.6 18.0 5.1 34 8.2 SE 13 15 7 8 1017.3 1016.8 0.0
29/07:30pm 21.8 18.5 4.8 33 8.4 SE 11 13 6 7 1016.9 1016.4 0.0
29/07:00pm 23.1 19.5 5.1 31 9.0 SSE 13 15 7 8 1016.6 1016.1 0.0
29/06:30pm 23.5 20.3 4.9 30 9.3 SSE 11 13 6 7 1016.5 1016.0 0.0
29/06:00pm 25.9 22.3 4.9 26 10.7 SSE 13 15 7 8 1016.2 1015.7 0.0
29/05:30pm 27.5 23.5 5.1 24 11.6 SSE 15 19 8 10 1015.9 1015.4 0.0
29/05:00pm 28.3 24.4 5.2 23 12.0 SSE 15 22 8 12 1015.6 1015.1 0.0
29/04:30pm 28.6 24.2 4.8 22 12.3 SE 17 24 9 13 1015.5 1015.0 0.0
29/04:00pm 28.7 24.7 4.9 22 12.3 SSE 15 22 8 12 1015.4 1014.9 0.0
29/03:30pm 29.1 25.2 5.2 22 12.5 SSE 15 26 8 14 1015.4 1014.9 0.0
29/03:00pm 28.8 24.4 5.0 22 12.3 SE 17 26 9 14 1015.6 1015.1 0.0
29/02:30pm 28.8 24.4 5.0 22 12.4 SSE 17 26 9 14 1015.6 1015.1 0.0
29/02:00pm 28.8 24.4 5.0 22 12.3 SSE 17 24 9 13 1015.8 1015.3 0.0
29/01:30pm 28.1 24.1 5.0 23 11.9 SE 15 24 8 13 1016.1 1015.6 0.0
29/01:00pm 28.0 24.0 5.0 23 11.9 SE 15 22 8 12 1016.6 1016.1 0.0
29/12:30pm 27.3 22.9 5.0 24 11.5 ESE 17 30 9 16 1017.0 1016.5 0.0
29/12:00pm 26.5 22.1 4.9 25 11.0 ESE 17 22 9 12 1017.5 1017.1 0.0
29/11:30am 25.1 19.9 3.7 25 10.6 ESE 20 28 11 15 1018.1 1017.7 0.0
29/11:00am 24.4 18.8 3.7 26 10.2 ESE 22 33 12 18 1018.4 1018.0 0.0
29/10:30am 23.0 17.0 3.5 28 9.5 ESE 24 28 13 15 1018.9 1018.5 0.0
29/10:00am 21.7 16.2 3.9 31 8.6 ESE 22 30 12 16 1019.3 1018.9 0.0
29/09:30am 20.4 14.6 4.4 35 7.8 SE 24 28 13 15 1019.3 1018.9 0.0
29/09:00am 18.8 13.1 4.9 40 6.7 ESE 24 30 13 16 1019.0 1018.6 0.0
29/08:30am 17.3 12.4 5.3 45 5.8 SE 20 26 11 14 1018.9 1018.5 0.0
29/08:00am 15.9 11.5 4.9 48 5.2 ESE 17 22 9 12 1018.4 1018.0 0.0
29/07:30am 14.6 11.1 5.4 54 4.4 SE 13 17 7 9 1018.4 1018.0 0.0
29/07:00am 14.2 10.7 5.3 55 4.2 SE 13 17 7 9 1018.0 1017.6 0.0
29/06:30am 14.4 10.5 5.5 55 4.2 SE 15 19 8 10 1017.6 1017.2 0.0
29/06:00am 14.1 10.7 5.7 57 4.0 SSE 13 17 7 9 1017.4 1016.9 0.0
29/05:30am 14.1 10.7 5.7 57 4.0 SSE 13 15 7 8 1017.1 1016.6 0.0
29/05:00am 14.6 11.2 5.7 55 4.3 SE 13 17 7 9 1017.0 1016.5 0.0
29/04:30am 14.9 11.8 5.7 54 4.4 SE 11 15 6 8 1016.8 1016.3 0.0
29/04:00am 14.7 11.7 5.8 55 4.3 SE 11 13 6 7 1016.7 1016.2 0.0
29/03:30am 14.8 12.1 5.6 54 4.4 SE 9 11 5 6 1016.5 1016.0 0.0
29/03:00am 15.0 12.0 5.8 54 4.4 SSE 11 13 6 7 1016.4 1015.9 0.0
29/02:30am 16.0 12.5 5.6 50 5.0 SSE 13 17 7 9 1016.3 1015.8 0.0
29/02:00am 16.0 12.2 5.9 51 4.9 SSE 15 19 8 10 1016.4 1015.9 0.0
29/01:30am 15.6 12.7 6.3 54 4.5 SE 11 11 6 6 1016.3 1015.8 0.0
29/01:00am 16.0 13.4 6.2 52 4.8 SE 9 11 5 6 1016.4 1015.9 0.0
29/12:30am 16.7 13.4 6.2 50 5.2 SSE 13 15 7 8 1016.6 1016.1 0.0
29/12:00am 17.0 14.0 6.2 49 5.3 SSE 11 13 6 7 1016.7 1016.2 0.0
 
Date/Time
EST
Temp
°C
App
Temp
°C
Dew
Point
Rel
Hum
%
Delta-T
°C
Wind Press
QNH
hPa
Press
MSL
hPa
Rain
since 9 am
mm
Dir
 
Spd
km/h
Gust
km/h
Spd
kts
Gust
kts
28/11:30pm 17.7 14.8 6.3 47 5.6 SE 11 13 6 7 1016.9 1016.4 0.0
28/11:00pm 18.2 15.2 6.1 45 6.0 SE 11 13 6 7 1017.1 1016.6 0.0
28/10:30pm 18.8 15.9 6.3 44 6.2 SE 11 13 6 7 1017.1 1016.6 0.0
28/10:00pm 19.2 15.9 6.3 43 6.4 SE 13 15 7 8 1017.0 1016.5 0.0
28/09:30pm 18.8 15.8 6.0 43 6.4 SE 11 13 6 7 1016.9 1016.4 0.0
28/09:00pm 18.2 15.5 5.8 44 6.1 SE 9 11 5 6 1016.8 1016.3 0.0
28/08:30pm 19.3 16.2 5.4 40 6.8 SE 11 11 6 6 1016.6 1016.1 0.0
28/08:00pm 20.0 16.5 5.3 38 7.2 SSE 13 15 7 8 1016.4 1015.9 0.0
28/07:30pm 20.8 17.6 5.2 36 7.7 SE 11 13 6 7 1016.2 1015.7 0.0
28/07:00pm 21.8 18.5 4.8 33 8.4 SE 11 13 6 7 1015.8 1015.3 0.0
28/06:30pm 22.5 19.2 4.5 31 8.9 SSE 11 13 6 7 1015.6 1015.1 0.0
28/06:00pm 24.4 21.0 4.2 27 10.1 SSE 11 13 6 7 1015.3 1014.8 0.0
28/05:30pm 26.0 21.9 4.5 25 10.9 SE 15 20 8 11 1015.3 1014.8 0.0
28/05:00pm 26.6 23.2 3.8 23 11.4 SE 11 19 6 10 1015.1 1014.6 0.0
28/04:30pm 26.8 22.6 4.0 23 11.5 SE 15 19 8 10 1015.1 1014.6 0.0
28/04:00pm 26.9 23.1 4.0 23 11.5 SSE 13 20 7 11 1015.2 1014.7 0.0
28/03:30pm 27.1 22.8 5.4 25 11.2 SSE 17 24 9 13 1015.3 1014.8 0.0
28/03:00pm 27.0 22.7 5.3 25 11.2 SE 17 24 9 13 1015.7 1015.2 0.0
28/02:30pm 26.8 22.7 6.2 27 10.8 SE 17 26 9 14 1015.8 1015.3 0.0
28/02:00pm 26.5 22.1 6.5 28 10.5 SE 19 28 10 15 1016.1 1015.6 0.0
28/01:30pm 25.7 21.4 6.8 30 9.9 SSE 19 30 10 16 1016.5 1016.0 0.0
28/01:00pm 25.2 20.7 6.9 31 9.6 SSE 20 28 11 15 1017.0 1016.5 0.0
28/12:30pm 24.8 19.6 7.4 33 9.2 SSE 24 33 13 18 1017.6 1017.2 0.0

Other Formats:

Comma delimited format used in spreadsheet applications
http://www.bom.gov.au/fwo/IDQ60801/IDQ60801.94337.axf

JavaScript Object Notation format (JSON) in row-major order
http://www.bom.gov.au/fwo/IDQ60801/IDQ60801.94337.json